createdAt,value
2022-10-28T00:00:12.126Z,2.57
2022-10-28T00:05:18.423Z,2.44
2022-10-28T00:10:24.828Z,2.40
2022-10-28T00:15:31.221Z,2.51
2022-10-28T00:20:37.456Z,2.46
2022-10-28T00:25:43.670Z,2.58
2022-10-28T00:30:50.209Z,2.42
2022-10-28T00:35:56.548Z,2.58
2022-10-28T00:41:03.042Z,2.49
2022-10-28T00:46:09.493Z,2.48
2022-10-28T00:51:15.808Z,2.49
2022-10-28T00:56:22.086Z,2.35
2022-10-28T01:01:28.427Z,2.53
2022-10-28T01:06:34.739Z,2.71
2022-10-28T01:11:41.239Z,2.47
2022-10-28T01:16:47.535Z,2.48
2022-10-28T01:21:53.926Z,2.49
2022-10-28T01:27:00.206Z,2.52
2022-10-28T01:32:06.589Z,2.38
2022-10-28T01:37:12.967Z,2.40
2022-10-28T01:42:19.278Z,2.31
2022-10-28T01:47:25.956Z,2.48
2022-10-28T01:52:32.630Z,2.43
2022-10-28T01:57:39.015Z,2.44
2022-10-28T02:02:45.290Z,2.35
2022-10-28T02:07:51.560Z,2.37
2022-10-28T02:12:57.780Z,2.16
2022-10-28T02:18:04.267Z,2.31
2022-10-28T02:23:10.661Z,2.29
2022-10-28T02:28:17.086Z,2.50
2022-10-28T02:33:23.091Z,2.30
2022-10-28T02:38:29.487Z,2.39
2022-10-28T02:43:35.764Z,2.43
2022-10-28T02:48:42.195Z,2.35
2022-10-28T02:53:48.652Z,2.51
2022-10-28T02:58:54.919Z,2.39
2022-10-28T03:04:01.595Z,2.85
2022-10-28T03:09:07.997Z,2.66
2022-10-28T03:14:15.424Z,2.62
2022-10-28T03:19:20.076Z,2.70
2022-10-28T03:24:26.479Z,2.73
2022-10-28T03:29:32.798Z,2.77
2022-10-28T03:34:39.334Z,2.62
2022-10-28T03:39:45.619Z,2.56
2022-10-28T03:44:53.643Z,2.61
2022-10-28T03:49:59.889Z,2.58
2022-10-28T03:55:06.162Z,2.63
2022-10-28T04:00:12.447Z,2.38
2022-10-28T04:05:18.817Z,2.67
2022-10-28T04:10:25.234Z,2.38
2022-10-28T04:15:31.665Z,2.64
2022-10-28T04:20:37.920Z,2.64
2022-10-28T04:25:44.127Z,2.46
2022-10-28T04:30:50.402Z,2.68
2022-10-28T04:35:56.620Z,2.71
2022-10-28T04:41:02.927Z,2.54
2022-10-28T04:46:09.337Z,2.79
2022-10-28T04:51:15.664Z,2.58
2022-10-28T04:56:21.908Z,2.64
2022-10-28T05:01:28.307Z,2.73
2022-10-28T05:06:36.270Z,2.54
2022-10-28T05:11:42.456Z,2.76
2022-10-28T05:16:48.704Z,3.22
2022-10-28T05:21:54.968Z,2.82
2022-10-28T05:27:01.255Z,2.95
2022-10-28T05:32:07.544Z,3.50
2022-10-28T05:37:13.868Z,3.66
2022-10-28T05:42:20.158Z,3.71
2022-10-28T05:47:26.625Z,2.97
2022-10-28T05:52:33.142Z,3.18
2022-10-28T05:57:39.519Z,3.04
2022-10-28T06:02:47.654Z,3.76
2022-10-28T06:07:53.025Z,3.21
2022-10-28T06:12:57.748Z,3.02
2022-10-28T06:18:04.037Z,3.48
2022-10-28T06:23:10.266Z,4.77
2022-10-28T06:28:16.597Z,2.99
2022-10-28T06:33:22.967Z,3.09
2022-10-28T06:38:29.265Z,2.90
2022-10-28T06:43:35.621Z,3.32
2022-10-28T06:48:43.436Z,3.16
2022-10-28T06:53:49.753Z,2.96
2022-10-28T06:58:56.047Z,2.71
2022-10-28T07:04:02.239Z,2.59
2022-10-28T07:09:08.617Z,2.78
2022-10-28T07:14:14.873Z,2.97
2022-10-28T07:19:22.698Z,2.81
2022-10-28T07:29:32.964Z,3.29
2022-10-28T07:34:39.297Z,3.07
2022-10-28T07:39:45.611Z,3.30
2022-10-28T07:44:51.934Z,3.05
2022-10-28T07:49:58.254Z,3.31
2022-10-28T07:55:04.597Z,3.35
2022-10-28T08:00:11.951Z,3.39
2022-10-28T08:05:18.219Z,3.33
2022-10-28T08:10:24.513Z,3.00
2022-10-28T08:15:30.911Z,3.42
2022-10-28T08:20:37.245Z,3.37
2022-10-28T08:25:43.481Z,3.48
2022-10-28T08:30:57.292Z,3.32
2022-10-28T08:35:55.869Z,2.93
2022-10-28T08:41:02.163Z,3.08
2022-10-28T08:46:08.648Z,3.39
2022-10-28T08:51:15.028Z,3.15
2022-10-28T08:56:21.297Z,3.54
2022-10-28T09:01:27.716Z,2.59
2022-10-28T09:06:33.798Z,2.80
2022-10-28T09:11:40.119Z,3.13
2022-10-28T09:16:46.441Z,2.79
2022-10-28T09:21:52.765Z,2.67
2022-10-28T09:26:59.053Z,2.60
2022-10-28T09:32:05.357Z,2.71
2022-10-28T09:37:11.743Z,2.78
2022-10-28T09:42:18.083Z,2.66
2022-10-28T09:47:24.441Z,2.67
2022-10-28T09:52:30.786Z,2.59
2022-10-28T09:57:37.338Z,2.78
2022-10-28T10:02:45.231Z,2.64
2022-10-28T10:07:50.493Z,2.87
2022-10-28T10:12:57.300Z,2.83
2022-10-28T10:18:02.973Z,2.68
2022-10-28T10:23:09.314Z,2.73
2022-10-28T10:28:15.581Z,2.65
2022-10-28T10:33:21.940Z,2.76
2022-10-28T10:38:28.301Z,2.86
2022-10-28T10:43:34.720Z,2.69
2022-10-28T10:48:41.008Z,2.54
2022-10-28T10:53:49.641Z,2.56
2022-10-28T10:58:55.879Z,2.77
2022-10-28T11:04:02.346Z,2.56
2022-10-28T11:09:08.187Z,2.42
2022-10-28T11:14:15.287Z,2.40
2022-10-28T11:19:23.268Z,2.73
2022-10-28T11:24:29.865Z,2.45
2022-10-28T11:29:36.158Z,2.54
2022-10-28T11:34:42.521Z,2.46
2022-10-28T11:39:48.767Z,2.47
2022-10-28T11:44:55.249Z,2.50
2022-10-28T11:50:01.549Z,2.33
2022-10-28T11:55:07.816Z,2.46
2022-10-28T12:00:14.087Z,2.50
2022-10-28T12:05:20.602Z,2.55
2022-10-28T12:10:26.933Z,2.45
2022-10-28T12:15:33.173Z,2.59
2022-10-28T12:20:39.620Z,2.46
2022-10-28T12:25:46.184Z,2.51
2022-10-28T12:30:52.474Z,2.40
2022-10-28T12:35:59.261Z,2.22
2022-10-28T12:41:05.502Z,2.71
2022-10-28T12:46:13.256Z,2.65
2022-10-28T12:51:18.682Z,2.45
2022-10-28T12:56:25.051Z,2.69
2022-10-28T13:01:31.601Z,2.65
2022-10-28T13:11:43.590Z,2.59
2022-10-28T13:16:52.612Z,2.81
2022-10-28T13:21:58.957Z,4.84
2022-10-28T13:27:05.585Z,2.75
2022-10-28T13:32:16.206Z,2.43
2022-10-28T13:37:12.531Z,2.67
2022-10-28T13:42:18.958Z,2.50
2022-10-28T13:47:26.486Z,2.84
2022-10-28T13:52:32.971Z,2.80
2022-10-28T13:57:39.242Z,2.66
2022-10-28T14:02:45.605Z,2.89
2022-10-28T14:07:52.052Z,3.03
2022-10-28T14:12:57.938Z,3.20
2022-10-28T14:18:10.256Z,2.86
2022-10-28T14:23:09.688Z,2.88
2022-10-28T14:28:16.110Z,3.12
2022-10-28T14:33:22.421Z,3.07
2022-10-28T14:38:28.693Z,2.85
2022-10-28T14:43:35.385Z,2.97
2022-10-28T14:48:41.919Z,3.09
2022-10-28T14:53:48.493Z,2.97
2022-10-28T14:58:54.844Z,3.04
2022-10-28T15:04:01.138Z,2.95
2022-10-28T15:09:07.506Z,2.81
2022-10-28T15:14:13.850Z,3.70
2022-10-28T15:19:22.112Z,3.77
2022-10-28T15:24:28.794Z,3.51
2022-10-28T15:29:35.312Z,3.46
2022-10-28T15:34:42.002Z,3.59
2022-10-28T15:39:49.901Z,2.94
2022-10-28T15:44:55.568Z,3.06
2022-10-28T15:50:02.103Z,3.49
2022-10-28T15:55:09.457Z,3.91
2022-10-28T16:00:16.068Z,3.18
2022-10-28T16:05:25.345Z,3.50
2022-10-28T16:10:28.617Z,4.60
2022-10-28T16:15:35.219Z,4.03
2022-10-28T16:20:42.042Z,3.55
2022-10-28T16:25:48.498Z,3.64
2022-10-28T16:30:54.819Z,3.64
2022-10-28T16:36:01.498Z,4.12
2022-10-28T16:41:07.805Z,3.57
2022-10-28T16:46:14.192Z,3.47
2022-10-28T16:51:22.442Z,3.71
2022-10-28T16:56:27.730Z,5.78
2022-10-28T17:01:35.487Z,6.69
2022-10-28T17:06:46.387Z,6.60
2022-10-28T17:11:50.667Z,6.07
2022-10-28T17:16:57.047Z,7.69
2022-10-28T17:22:06.193Z,5.92
2022-10-28T17:27:09.337Z,5.24
2022-10-28T17:32:16.724Z,5.31
2022-10-28T17:37:22.152Z,5.31
2022-10-28T17:42:28.997Z,4.51
2022-10-28T17:47:36.374Z,3.71
2022-10-28T17:52:42.623Z,5.34
2022-10-28T17:57:49.263Z,4.42
2022-10-28T18:02:55.600Z,4.01
2022-10-28T18:08:02.084Z,4.71
2022-10-28T18:13:08.459Z,4.19
2022-10-28T18:18:14.670Z,4.67
2022-10-28T18:23:21.123Z,6.45
2022-10-28T18:28:27.417Z,4.54
2022-10-28T18:33:33.751Z,5.46
2022-10-28T18:38:40.017Z,8.23
2022-10-28T18:43:47.418Z,8.60
2022-10-28T18:48:54.870Z,6.84
2022-10-28T18:54:01.242Z,5.78
2022-10-28T18:59:07.528Z,4.76
2022-10-28T19:04:13.817Z,4.39
2022-10-28T19:09:20.057Z,4.02
2022-10-28T19:14:26.417Z,4.14
2022-10-28T19:19:36.879Z,4.28
2022-10-28T19:24:38.484Z,4.38
2022-10-28T19:34:47.130Z,4.35
2022-10-28T19:39:57.336Z,4.18
2022-10-28T19:44:56.027Z,4.53
2022-10-28T19:50:02.483Z,4.32
2022-10-28T19:55:29.753Z,4.22
2022-10-28T20:03:34.423Z,4.43
2022-10-28T20:05:28.015Z,4.37
